Time;durP1;ratioP1;P1;durP2;ratioP2;P2;SDS_P1;SDS_P2;PMS_P1;PMS_P2;Temp;Humidity;BMP_temperature;BMP_pressure;BME280_temperature;BME280_humidity;BME280_pressure;Samples;Min_cycle;Max_cycle;Signal;HPM_P1;HPM_P2
2023/05/24 00:01:24;;;;;;;3.15;2.40;;;16.40;99.90;;;;;;7388927;19;20146;-72
2023/05/24 00:03:57;;;;;;;2.85;2.40;;;16.20;99.90;;;;;;7386560;19;20139;-72
2023/05/24 00:06:25;;;;;;;3.63;2.60;;;16.30;99.90;;;;;;7388521;19;20166;-72
2023/05/24 00:08:51;;;;;;;3.78;2.40;;;16.30;99.90;;;;;;7384226;19;20154;-71
2023/05/24 00:11:17;;;;;;;3.47;2.05;;;16.30;99.90;;;;;;7387754;19;20738;-72
2023/05/24 00:13:43;;;;;;;2.75;2.15;;;16.30;99.90;;;;;;7385233;19;20142;-71
2023/05/24 00:16:09;;;;;;;2.95;2.38;;;16.30;99.90;;;;;;7386683;19;20143;-72
2023/05/24 00:18:39;;;;;;;3.33;2.50;;;16.30;99.90;;;;;;7387491;19;20130;-72
2023/05/24 00:21:07;;;;;;;3.00;2.08;;;16.30;99.90;;;;;;7387051;19;20457;-72
2023/05/24 00:23:33;;;;;;;4.10;2.45;;;16.40;99.90;;;;;;7385098;19;20154;-72
2023/05/24 00:26:00;;;;;;;5.13;2.72;;;16.40;99.90;;;;;;7385857;19;20486;-72
2023/05/24 00:28:26;;;;;;;3.78;2.47;;;16.40;99.90;;;;;;7385193;19;20179;-72
2023/05/24 00:30:52;;;;;;;5.10;2.80;;;16.50;99.90;;;;;;7386016;19;20602;-71
2023/05/24 00:33:18;;;;;;;2.97;2.13;;;16.40;99.90;;;;;;7383763;19;20150;-72
2023/05/24 00:35:43;;;;;;;2.90;2.35;;;16.40;99.90;;;;;;7387955;19;20142;-72
2023/05/24 00:38:09;;;;;;;3.47;2.30;;;16.50;99.90;;;;;;7385938;19;20165;-71
2023/05/24 00:40:35;;;;;;;3.72;2.50;;;16.50;99.90;;;;;;7386343;19;20146;-73
2023/05/24 00:43:00;;;;;;;2.88;2.25;;;16.50;99.90;;;;;;7381119;19;20536;-72
2023/05/24 00:45:26;;;;;;;4.68;2.58;;;16.50;99.90;;;;;;7387235;19;20142;-72
2023/05/24 00:47:52;;;;;;;3.20;1.92;;;16.50;99.90;;;;;;7385506;19;20134;-72
2023/05/24 00:50:19;;;;;;;4.28;2.60;;;16.40;99.90;;;;;;7386225;19;20496;-71
2023/05/24 00:52:48;;;;;;;4.13;2.30;;;16.50;99.90;;;;;;7385013;19;20177;-71
2023/05/24 00:55:15;;;;;;;2.67;2.00;;;16.40;99.90;;;;;;7387777;19;20142;-71
2023/05/24 00:57:41;;;;;;;3.60;2.22;;;16.30;99.90;;;;;;7384788;19;20167;-71
2023/05/24 01:00:08;;;;;;;3.63;2.20;;;16.40;99.90;;;;;;7387126;19;20163;-72
2023/05/24 01:02:34;;;;;;;5.95;2.25;;;16.30;99.90;;;;;;7384184;19;20164;-72
2023/05/24 01:05:00;;;;;;;4.05;2.28;;;16.30;99.90;;;;;;7380558;19;20135;-71
2023/05/24 01:08:02;;;;;;;3.88;2.03;;;16.30;99.90;;;;;;7386402;19;20153;-72
2023/05/24 01:10:42;;;;;;;3.08;2.00;;;16.20;99.90;;;;;;7386223;19;20155;-71
2023/05/24 01:13:28;;;;;;;4.43;2.17;;;16.10;99.90;;;;;;7385747;19;20409;-71
2023/05/24 01:16:10;;;;;;;6.53;1.88;;;16.00;99.90;;;;;;7388277;19;20468;-72
2023/05/24 01:18:45;;;;;;;5.90;2.38;;;16.00;99.90;;;;;;7382630;19;20134;-72
2023/05/24 01:21:11;;;;;;;6.13;2.20;;;16.00;99.90;;;;;;7385374;19;20745;-72
2023/05/24 01:23:55;;;;;;;5.85;2.78;;;16.10;99.90;;;;;;7383223;19;20209;-72
2023/05/24 01:26:26;;;;;;;5.97;2.20;;;16.00;99.90;;;;;;7385401;19;20154;-71
2023/05/24 01:28:53;;;;;;;4.55;2.65;;;16.00;99.90;;;;;;7383525;19;20126;-72
2023/05/24 01:31:20;;;;;;;6.43;2.33;;;16.00;99.90;;;;;;7384212;19;20126;-71
2023/05/24 01:33:46;;;;;;;4.53;2.40;;;16.00;99.90;;;;;;7383510;19;20142;-71
2023/05/24 01:36:11;;;;;;;4.13;1.92;;;16.00;99.90;;;;;;7384515;19;20150;-71
2023/05/24 01:38:39;;;;;;;6.10;2.28;;;16.00;99.90;;;;;;7382818;19;20141;-72
2023/05/24 01:41:12;;;;;;;7.95;2.50;;;16.10;99.90;;;;;;7386442;19;20138;-71
2023/05/24 01:43:42;;;;;;;5.03;2.28;;;16.00;99.90;;;;;;7387036;19;20178;-70
2023/05/24 01:46:12;;;;;;;7.28;3.00;;;16.00;99.90;;;;;;7392597;19;20167;-73
2023/05/24 01:48:44;;;;;;;4.28;1.92;;;15.90;99.90;;;;;;7390002;19;20118;-72
2023/05/24 01:51:13;;;;;;;3.53;1.98;;;15.90;99.90;;;;;;7389962;19;20142;-72
2023/05/24 01:53:47;;;;;;;5.35;2.00;;;15.90;99.90;;;;;;7387278;19;20610;-71
2023/05/24 01:56:15;;;;;;;4.28;2.00;;;15.80;99.90;;;;;;7391607;19;20135;-71
2023/05/24 01:58:46;;;;;;;5.18;2.42;;;15.80;99.90;;;;;;7390276;19;20153;-72
2023/05/24 02:01:13;;;;;;;5.10;2.50;;;15.80;99.90;;;;;;7389605;19;20218;-71
2023/05/24 02:03:39;;;;;;;7.30;2.25;;;15.80;99.90;;;;;;7389172;19;20139;-71
2023/05/24 02:06:07;;;;;;;5.15;2.33;;;16.00;99.90;;;;;;7391247;19;20238;-71
2023/05/24 02:08:33;;;;;;;4.47;2.28;;;15.80;99.90;;;;;;7389132;19;20620;-72
2023/05/24 02:10:58;;;;;;;4.72;2.63;;;15.70;99.90;;;;;;7388798;19;20174;-72
2023/05/24 02:13:24;;;;;;;5.22;2.28;;;15.80;99.90;;;;;;7390001;19;20130;-72
2023/05/24 02:15:52;;;;;;;5.25;2.40;;;15.80;99.90;;;;;;7390176;19;20143;-71
2023/05/24 02:18:18;;;;;;;5.22;2.10;;;15.70;99.90;;;;;;7389464;19;20163;-71
2023/05/24 02:20:45;;;;;;;7.47;2.33;;;15.70;99.90;;;;;;7392180;19;20134;-70
2023/05/24 02:23:11;;;;;;;6.22;2.50;;;15.60;99.90;;;;;;7388137;19;20260;-72
2023/05/24 02:25:37;;;;;;;5.78;2.22;;;15.60;99.90;;;;;;7391126;19;20150;-72
2023/05/24 02:28:02;;;;;;;4.22;2.38;;;15.60;99.90;;;;;;7390406;19;20214;-72
2023/05/24 02:30:28;;;;;;;5.35;2.20;;;15.60;99.90;;;;;;7392245;19;20455;-71
2023/05/24 02:32:54;;;;;;;4.55;2.20;;;15.50;99.90;;;;;;7388726;19;20130;-72
2023/05/24 02:35:20;;;;;;;5.43;2.53;;;15.50;99.90;;;;;;7390776;19;20597;-71
2023/05/24 02:37:46;;;;;;;7.22;2.28;;;15.50;99.90;;;;;;7389286;19;20135;-72
2023/05/24 02:40:12;;;;;;;6.18;2.17;;;15.40;99.90;;;;;;7389710;19;20123;-71
2023/05/24 02:42:38;;;;;;;4.30;2.10;;;15.50;99.90;;;;;;7377595;19;20186;-72
2023/05/24 02:45:04;;;;;;;4.88;2.10;;;15.50;99.90;;;;;;7389076;19;20152;-71
2023/05/24 02:47:30;;;;;;;6.22;2.30;;;15.40;99.90;;;;;;7389285;19;20142;-72
2023/05/24 02:49:56;;;;;;;3.30;2.40;;;15.60;99.90;;;;;;7387282;19;20161;-72
2023/05/24 02:52:22;;;;;;;6.47;2.63;;;15.60;99.90;;;;;;7388330;19;20525;-72
2023/05/24 02:54:51;;;;;;;5.55;2.45;;;15.60;99.90;;;;;;7389364;19;20143;-72
2023/05/24 02:57:17;;;;;;;4.20;2.03;;;15.60;99.90;;;;;;7389852;19;20202;-71
2023/05/24 02:59:43;;;;;;;7.80;3.40;;;15.60;99.90;;;;;;7390799;19;20147;-71
2023/05/24 03:02:12;;;;;;;5.03;2.53;;;15.50;99.90;;;;;;7386805;19;20149;-71
2023/05/24 03:04:38;;;;;;;7.38;2.47;;;15.40;99.90;;;;;;7390460;19;20142;-71
2023/05/24 03:07:04;;;;;;;7.10;3.33;;;15.40;99.90;;;;;;7389554;19;20150;-72
2023/05/24 03:09:30;;;;;;;4.95;2.22;;;15.40;99.90;;;;;;7386229;19;20142;-71
2023/05/24 03:11:56;;;;;;;3.28;2.17;;;15.30;99.90;;;;;;7388490;19;20513;-71
2023/05/24 03:14:23;;;;;;;6.40;2.80;;;15.30;99.90;;;;;;7388539;19;20290;-71
2023/05/24 03:16:49;;;;;;;5.88;2.47;;;15.20;99.90;;;;;;7387301;19;20171;-72
2023/05/24 03:19:18;;;;;;;7.60;3.13;;;15.20;99.90;;;;;;7386784;19;20142;-71
2023/05/24 03:21:43;;;;;;;7.50;2.58;;;15.30;99.90;;;;;;7389095;19;20238;-72
2023/05/24 03:24:11;;;;;;;6.75;2.40;;;15.30;99.90;;;;;;7388403;19;20879;-72
2023/05/24 03:26:41;;;;;;;3.85;2.60;;;15.20;99.90;;;;;;7388461;19;20505;-72
2023/05/24 03:29:07;;;;;;;5.60;2.60;;;15.10;99.90;;;;;;7386508;19;20142;-72
2023/05/24 03:31:32;;;;;;;7.60;2.47;;;15.20;99.90;;;;;;7386963;19;20161;-72
2023/05/24 03:33:58;;;;;;;6.88;2.88;;;15.20;99.90;;;;;;7389431;19;20352;-71
2023/05/24 03:36:25;;;;;;;6.03;2.40;;;15.20;99.90;;;;;;7387251;19;20154;-72
2023/05/24 03:38:50;;;;;;;4.97;2.38;;;15.20;99.90;;;;;;7389313;19;20138;-71
2023/05/24 03:41:16;;;;;;;6.30;2.50;;;15.20;99.90;;;;;;7385968;19;20597;-71
2023/05/24 03:43:42;;;;;;;6.13;2.22;;;15.10;99.90;;;;;;7386598;19;20138;-72
2023/05/24 03:46:08;;;;;;;7.55;3.45;;;15.10;99.90;;;;;;7381271;19;20171;-71
2023/05/24 03:48:33;;;;;;;4.70;2.10;;;15.20;99.90;;;;;;7388232;19;20205;-72
2023/05/24 03:50:59;;;;;;;5.78;2.38;;;15.10;99.90;;;;;;7388783;19;20122;-71
2023/05/24 03:53:25;;;;;;;7.03;2.65;;;15.20;99.90;;;;;;7387539;19;20169;-72
2023/05/24 03:55:50;;;;;;;4.85;2.47;;;15.20;99.90;;;;;;7387845;19;20226;-71
2023/05/24 03:58:16;;;;;;;6.30;2.15;;;15.20;99.90;;;;;;7388787;19;20137;-72
2023/05/24 04:00:42;;;;;;;7.10;2.47;;;15.30;99.90;;;;;;7388096;19;20156;-70
2023/05/24 04:03:08;;;;;;;6.55;2.40;;;15.20;99.90;;;;;;7388431;19;20142;-72
2023/05/24 04:05:34;;;;;;;5.45;2.38;;;15.10;99.90;;;;;;7385701;19;20214;-71
2023/05/24 04:08:00;;;;;;;6.40;2.90;;;15.10;99.90;;;;;;7389548;19;20131;-72
2023/05/24 04:10:26;;;;;;;4.22;2.20;;;15.30;99.90;;;;;;7387901;19;20489;-71
2023/05/24 04:12:52;;;;;;;5.22;2.63;;;15.30;99.90;;;;;;7388035;19;20206;-72
2023/05/24 04:15:17;;;;;;;4.70;3.00;;;15.20;99.90;;;;;;7389470;19;20138;-72
2023/05/24 04:17:45;;;;;;;6.88;2.90;;;15.20;99.90;;;;;;7386165;19;20135;-72
2023/05/24 04:20:12;;;;;;;4.75;2.17;;;15.20;99.90;;;;;;7388340;19;20135;-70
2023/05/24 04:22:39;;;;;;;10.50;2.63;;;15.10;99.90;;;;;;7386455;19;20153;-71
2023/05/24 04:25:06;;;;;;;4.40;2.42;;;15.00;99.90;;;;;;7389524;19;20190;-72
2023/05/24 04:27:32;;;;;;;5.07;2.17;;;15.00;99.90;;;;;;7388062;19;20598;-71
2023/05/24 04:29:57;;;;;;;5.68;2.65;;;15.00;99.90;;;;;;7385520;19;20177;-71
2023/05/24 04:32:23;;;;;;;3.95;2.47;;;15.10;99.90;;;;;;7385867;19;20473;-71
2023/05/24 04:34:51;;;;;;;4.43;2.55;;;15.00;99.90;;;;;;7388876;19;20582;-72
2023/05/24 04:37:17;;;;;;;6.55;2.97;;;14.90;99.90;;;;;;7388130;19;20202;-70
2023/05/24 04:39:44;;;;;;;5.47;2.40;;;14.90;99.90;;;;;;7389006;19;20494;-72
2023/05/24 04:42:11;;;;;;;6.53;2.60;;;14.90;99.90;;;;;;7385840;19;20170;-71
2023/05/24 04:44:36;;;;;;;5.47;2.60;;;14.90;99.90;;;;;;7390822;19;20151;-72
2023/05/24 04:47:02;;;;;;;4.35;2.20;;;14.80;99.90;;;;;;7387250;19;20146;-72
2023/05/24 04:49:29;;;;;;;6.88;2.65;;;14.90;99.90;;;;;;7385582;19;20146;-72
2023/05/24 04:51:55;;;;;;;6.63;2.60;;;15.00;99.90;;;;;;7388010;19;20137;-72
2023/05/24 04:54:21;;;;;;;5.53;2.35;;;15.20;99.90;;;;;;7386325;19;20142;-72
2023/05/24 04:56:47;;;;;;;4.22;2.47;;;15.20;99.90;;;;;;7389861;19;20127;-71
2023/05/24 04:59:13;;;;;;;6.10;2.65;;;15.20;99.90;;;;;;7387567;19;20150;-72
2023/05/24 05:01:39;;;;;;;7.65;2.60;;;15.20;99.90;;;;;;7385442;19;20456;-71
2023/05/24 05:04:04;;;;;;;7.10;2.47;;;15.10;99.90;;;;;;7389339;19;20134;-71
2023/05/24 05:06:33;;;;;;;5.30;2.42;;;15.10;99.90;;;;;;7387233;19;20161;-71
2023/05/24 05:08:59;;;;;;;3.85;2.30;;;15.00;99.90;;;;;;7385694;19;20165;-72
2023/05/24 05:11:26;;;;;;;3.33;2.22;;;15.00;99.90;;;;;;7385295;19;20557;-71
2023/05/24 05:13:53;;;;;;;6.55;2.20;;;15.00;99.90;;;;;;7386017;19;20574;-71
2023/05/24 05:16:19;;;;;;;7.35;2.78;;;14.90;99.90;;;;;;7385243;19;20150;-72
2023/05/24 05:18:45;;;;;;;4.03;2.72;;;14.80;99.90;;;;;;7383859;19;20162;-71
2023/05/24 05:21:10;;;;;;;8.38;3.15;;;14.70;99.90;;;;;;7385198;19;20134;-71
2023/05/24 05:23:38;;;;;;;6.15;2.72;;;14.70;99.90;;;;;;7386423;19;20601;-71
2023/05/24 05:26:06;;;;;;;5.57;2.70;;;14.70;99.90;;;;;;7385011;19;20146;-72
2023/05/24 05:28:32;;;;;;;8.77;2.55;;;14.70;99.90;;;;;;7385740;19;20235;-72
2023/05/24 05:30:57;;;;;;;6.93;2.55;;;14.80;99.90;;;;;;7386226;19;20118;-71
2023/05/24 05:33:23;;;;;;;5.03;2.80;;;14.80;99.90;;;;;;7383491;19;20202;-71
2023/05/24 05:35:49;;;;;;;8.55;3.08;;;14.90;99.90;;;;;;7383877;19;20133;-72
2023/05/24 05:38:15;;;;;;;7.43;2.33;;;15.00;99.90;;;;;;7384014;19;20309;-72
2023/05/24 05:40:41;;;;;;;7.20;2.67;;;14.90;99.90;;;;;;7377809;19;20146;-72
2023/05/24 05:43:09;;;;;;;7.38;2.80;;;14.90;99.90;;;;;;7380662;19;20233;-70
2023/05/24 05:45:35;;;;;;;5.57;3.08;;;15.00;99.90;;;;;;7378917;19;20459;-72
2023/05/24 05:48:00;;;;;;;5.53;2.70;;;15.00;99.90;;;;;;7384070;19;20150;-72
2023/05/24 05:50:26;;;;;;;7.63;2.53;;;15.00;99.90;;;;;;7384494;19;20146;-71
2023/05/24 05:52:52;;;;;;;7.05;3.38;;;14.90;99.90;;;;;;7383039;19;20135;-72
2023/05/24 05:55:18;;;;;;;6.43;3.30;;;14.90;99.90;;;;;;7384713;19;20135;-72
2023/05/24 05:57:44;;;;;;;11.38;3.25;;;14.90;99.90;;;;;;7384757;19;20164;-72
2023/05/24 06:00:10;;;;;;;7.85;3.03;;;14.90;99.90;;;;;;7378101;19;20173;-72
2023/05/24 06:02:36;;;;;;;10.70;3.42;;;15.00;99.90;;;;;;7376211;19;20150;-73
2023/05/24 06:05:02;;;;;;;5.43;2.67;;;15.20;99.90;;;;;;7382235;19;20258;-72
2023/05/24 06:07:28;;;;;;;5.65;2.72;;;15.10;99.90;;;;;;7383689;19;20131;-72
2023/05/24 06:09:53;;;;;;;8.93;2.65;;;15.10;99.90;;;;;;7382359;19;20135;-73
2023/05/24 06:12:19;;;;;;;5.97;2.75;;;15.10;99.90;;;;;;7382277;19;20635;-72
2023/05/24 06:14:47;;;;;;;7.30;2.40;;;15.10;99.90;;;;;;7383280;19;20150;-72
2023/05/24 06:17:12;;;;;;;7.15;2.60;;;15.00;99.90;;;;;;7382542;19;20167;-72
2023/05/24 06:19:38;;;;;;;9.97;3.13;;;15.00;99.90;;;;;;7384263;19;20122;-72
2023/05/24 06:22:04;;;;;;;7.45;2.70;;;15.00;99.90;;;;;;7381680;19;20131;-72
2023/05/24 06:24:30;;;;;;;7.38;2.72;;;15.10;99.90;;;;;;7384596;19;20127;-72
2023/05/24 06:26:55;;;;;;;4.05;2.10;;;15.10;99.90;;;;;;7383098;19;20138;-73
2023/05/24 06:29:22;;;;;;;6.47;3.28;;;15.10;99.90;;;;;;7381278;19;20157;-74
2023/05/24 06:31:48;;;;;;;3.83;2.22;;;15.10;99.90;;;;;;7390459;19;20142;-72
2023/05/24 06:34:19;;;;;;;7.70;2.92;;;15.00;99.90;;;;;;7389089;19;20606;-74
2023/05/24 06:36:47;;;;;;;7.05;2.83;;;15.20;99.90;;;;;;7390773;19;20139;-72
2023/05/24 06:39:13;;;;;;;7.70;3.30;;;15.40;99.90;;;;;;7389603;19;20142;-70
2023/05/24 06:41:41;;;;;;;11.20;2.92;;;15.40;99.90;;;;;;7387954;19;20174;-73
2023/05/24 06:44:06;;;;;;;5.07;2.63;;;15.40;99.90;;;;;;7391138;19;20137;-72
2023/05/24 06:46:33;;;;;;;7.53;2.83;;;15.30;99.90;;;;;;7389389;19;20996;-72
2023/05/24 06:48:58;;;;;;;9.15;2.90;;;15.20;99.90;;;;;;7385797;19;20542;-73
2023/05/24 06:51:24;;;;;;;8.25;2.88;;;15.20;99.90;;;;;;7390075;19;20126;-72
2023/05/24 06:53:50;;;;;;;6.82;2.25;;;15.20;99.90;;;;;;7389647;19;20197;-73
2023/05/24 06:56:16;;;;;;;5.78;2.75;;;15.10;99.90;;;;;;7390339;19;20147;-70
2023/05/24 06:58:42;;;;;;;5.18;2.85;;;15.20;99.90;;;;;;7388351;19;20163;-71
2023/05/24 07:01:09;;;;;;;8.70;2.38;;;15.00;99.90;;;;;;7390370;19;20123;-71
2023/05/24 07:03:34;;;;;;;5.93;2.90;;;15.10;99.90;;;;;;7387972;19;20237;-70
2023/05/24 07:06:00;;;;;;;5.80;2.88;;;15.00;99.90;;;;;;7391287;19;20150;-71
2023/05/24 07:08:26;;;;;;;7.25;3.58;;;15.00;99.90;;;;;;7387122;19;20143;-70
2023/05/24 07:10:53;;;;;;;9.05;3.03;;;15.00;99.90;;;;;;7391648;19;20673;-73
2023/05/24 07:13:19;;;;;;;6.50;2.78;;;15.10;99.90;;;;;;7388522;19;20654;-72
2023/05/24 07:15:45;;;;;;;5.25;2.60;;;15.00;99.90;;;;;;7387304;19;20144;-71
2023/05/24 07:18:12;;;;;;;8.80;2.70;;;14.90;99.90;;;;;;7388389;19;20147;-73
2023/05/24 07:20:37;;;;;;;5.80;2.40;;;14.90;99.90;;;;;;7388663;19;20140;-72
2023/05/24 07:23:03;;;;;;;8.32;2.58;;;14.90;99.90;;;;;;7386706;19;20242;-73
2023/05/24 07:25:30;;;;;;;4.78;2.53;;;15.00;99.90;;;;;;7389131;19;20613;-72
2023/05/24 07:27:56;;;;;;;5.78;2.75;;;14.90;99.90;;;;;;7388875;19;20495;-74
2023/05/24 07:30:21;;;;;;;6.47;2.47;;;14.80;99.90;;;;;;7388142;19;20149;-75
2023/05/24 07:32:47;;;;;;;8.43;2.83;;;14.70;99.90;;;;;;7387251;19;20141;-74
2023/05/24 07:35:13;;;;;;;7.20;2.80;;;14.80;99.90;;;;;;7390584;19;20576;-74
2023/05/24 07:37:39;;;;;;;6.20;2.80;;;14.90;99.90;;;;;;7388646;19;20142;-74
2023/05/24 07:40:09;;;;;;;6.93;3.10;;;15.00;99.90;;;;;;7387317;19;20145;-74
2023/05/24 07:42:35;;;;;;;7.37;3.03;;;14.90;99.90;;;;;;7385795;19;20172;-75
2023/05/24 07:45:01;;;;;;;6.40;2.65;;;14.80;99.90;;;;;;7389879;19;20563;-73
2023/05/24 07:47:27;;;;;;;4.97;2.85;;;14.70;99.90;;;;;;7388014;19;20587;-73
2023/05/24 07:49:52;;;;;;;6.75;3.25;;;14.80;99.90;;;;;;7386024;19;20138;-73
2023/05/24 07:52:19;;;;;;;6.10;2.58;;;15.00;99.90;;;;;;7385244;19;20154;-73
2023/05/24 07:54:45;;;;;;;8.38;3.05;;;15.20;99.90;;;;;;7388050;19;20150;-73
2023/05/24 07:57:11;;;;;;;6.25;2.53;;;15.30;99.90;;;;;;7389255;19;20148;-73
2023/05/24 07:59:37;;;;;;;8.45;2.90;;;15.40;99.90;;;;;;7387447;19;20485;-73
2023/05/24 08:02:04;;;;;;;5.03;2.30;;;15.40;99.90;;;;;;7386100;19;20145;-73
2023/05/24 08:04:33;;;;;;;7.53;2.75;;;15.40;99.90;;;;;;7389059;19;20164;-75
2023/05/24 08:07:00;;;;;;;10.13;2.60;;;15.30;99.90;;;;;;7387880;19;20162;-74
2023/05/24 08:09:28;;;;;;;5.82;2.63;;;15.30;99.90;;;;;;7385752;19;20182;-74
2023/05/24 08:11:55;;;;;;;7.68;2.97;;;15.20;99.90;;;;;;7387758;19;20139;-73
2023/05/24 08:14:22;;;;;;;8.68;3.00;;;15.10;99.90;;;;;;7387108;19;20445;-75
2023/05/24 08:16:48;;;;;;;8.90;2.90;;;15.20;99.90;;;;;;7387373;19;20134;-74
2023/05/24 08:19:13;;;;;;;9.20;3.08;;;15.10;99.90;;;;;;7387111;19;21006;-74
2023/05/24 08:21:41;;;;;;;9.05;2.80;;;15.00;99.90;;;;;;7386206;19;20285;-73
2023/05/24 08:24:07;;;;;;;6.07;2.88;;;15.00;99.90;;;;;;7387790;19;20138;-73
2023/05/24 08:26:32;;;;;;;7.72;2.60;;;15.00;99.90;;;;;;7388915;19;20139;-72
2023/05/24 08:28:58;;;;;;;6.28;2.70;;;15.10;99.90;;;;;;7386394;19;20157;-73
2023/05/24 08:31:25;;;;;;;5.05;2.30;;;15.10;99.90;;;;;;7387859;19;20135;-74
2023/05/24 08:33:51;;;;;;;8.50;3.22;;;15.30;99.90;;;;;;7386315;19;20143;-72
2023/05/24 08:36:17;;;;;;;5.47;2.22;;;15.30;99.90;;;;;;7386349;19;20628;-73
2023/05/24 08:38:43;;;;;;;7.32;2.90;;;15.40;99.90;;;;;;7387370;19;20566;-75
2023/05/24 08:41:10;;;;;;;5.30;2.75;;;15.20;99.90;;;;;;7386166;19;20159;-74
2023/05/24 08:43:37;;;;;;;4.43;2.80;;;15.20;99.90;;;;;;7386351;19;20142;-73
2023/05/24 08:46:04;;;;;;;10.27;2.80;;;15.10;99.90;;;;;;7384044;19;20150;-74
2023/05/24 08:48:30;;;;;;;6.55;2.70;;;15.20;99.90;;;;;;7383332;19;20225;-72
2023/05/24 08:50:57;;;;;;;5.30;2.53;;;15.30;99.90;;;;;;7389167;19;20973;-73
2023/05/24 08:53:23;;;;;;;6.05;2.60;;;15.40;99.90;;;;;;7384404;19;20563;-75
2023/05/24 08:55:53;;;;;;;8.90;2.53;;;15.40;99.90;;;;;;7386898;19;20210;-74
2023/05/24 08:58:19;;;;;;;5.03;2.70;;;15.50;99.90;;;;;;7387410;19;20149;-75
2023/05/24 09:00:45;;;;;;;10.05;3.28;;;15.50;99.90;;;;;;7389353;19;20139;-75
2023/05/24 09:03:12;;;;;;;7.50;3.03;;;15.40;99.90;;;;;;7386033;19;20262;-75
2023/05/24 09:05:40;;;;;;;6.82;2.95;;;15.40;99.90;;;;;;7389583;19;20853;-71
2023/05/24 09:08:08;;;;;;;4.25;2.90;;;15.40;99.90;;;;;;7385102;19;20652;-73
2023/05/24 09:10:35;;;;;;;8.60;3.05;;;15.50;99.90;;;;;;7384861;19;20127;-74
2023/05/24 09:13:02;;;;;;;7.53;2.80;;;15.40;99.90;;;;;;7387692;19;20213;-76
2023/05/24 09:15:28;;;;;;;6.93;2.97;;;15.40;99.90;;;;;;7393151;19;20194;-75
2023/05/24 09:17:54;;;;;;;7.68;3.22;;;15.10;99.90;;;;;;7387229;19;20150;-75
2023/05/24 09:20:20;;;;;;;6.38;2.97;;;15.30;99.90;;;;;;7388496;19;20142;-74
2023/05/24 09:22:50;;;;;;;7.70;3.20;;;15.30;99.90;;;;;;7386348;19;20594;-72
2023/05/24 09:25:19;;;;;;;8.25;3.42;;;15.60;99.90;;;;;;7385342;19;20138;-74
2023/05/24 09:27:50;;;;;;;7.57;3.28;;;15.30;99.90;;;;;;7385979;19;20167;-73
2023/05/24 09:30:16;;;;;;;7.88;3.13;;;15.30;99.90;;;;;;7383056;19;20134;-74
2023/05/24 09:32:56;;;;;;;8.43;3.08;;;15.30;99.90;;;;;;7385910;19;20186;-73
2023/05/24 09:35:23;;;;;;;5.85;2.97;;;15.40;99.90;;;;;;7385461;19;20150;-73
2023/05/24 09:37:49;;;;;;;8.80;3.20;;;15.50;99.90;;;;;;7388004;19;20146;-74
2023/05/24 09:40:19;;;;;;;6.68;2.78;;;15.50;99.90;;;;;;7385277;19;20142;-74
2023/05/24 09:42:45;;;;;;;5.20;2.95;;;15.60;99.90;;;;;;7383150;19;20192;-73
2023/05/24 09:45:11;;;;;;;6.45;2.83;;;15.50;99.90;;;;;;7387615;19;20142;-73
2023/05/24 09:47:39;;;;;;;7.97;3.35;;;15.40;99.90;;;;;;7383760;19;20161;-74
2023/05/24 09:50:12;;;;;;;6.88;3.00;;;15.60;99.90;;;;;;7380660;19;20135;-72
2023/05/24 09:52:38;;;;;;;12.38;3.45;;;15.60;99.90;;;;;;7384626;19;20612;-73
2023/05/24 09:55:36;;;;;;;7.50;2.80;;;15.50;99.90;;;;;;7382674;19;20135;-73
2023/05/24 09:58:04;;;;;;;6.20;2.67;;;15.40;99.90;;;;;;7383164;19;20192;-74
2023/05/24 10:00:42;;;;;;;7.72;3.03;;;15.40;99.90;;;;;;7384674;19;20141;-74
2023/05/24 10:03:10;;;;;;;5.45;2.90;;;15.40;99.90;;;;;;7382219;19;20400;-73
2023/05/24 10:05:37;;;;;;;7.05;3.00;;;15.40;99.90;;;;;;7383995;19;20183;-73
2023/05/24 10:08:08;;;;;;;10.18;2.75;;;15.50;99.90;;;;;;7393071;19;20169;-73
2023/05/24 10:10:35;;;;;;;5.85;2.78;;;15.60;99.90;;;;;;7390791;19;20151;-74
2023/05/24 10:13:01;;;;;;;4.72;2.97;;;15.50;99.90;;;;;;7391573;19;20250;-73
2023/05/24 10:15:28;;;;;;;6.20;2.70;;;15.60;99.90;;;;;;7392035;19;20173;-73
2023/05/24 10:17:55;;;;;;;10.32;3.00;;;15.50;99.90;;;;;;7389759;19;20161;-74
2023/05/24 10:20:22;;;;;;;7.67;3.13;;;15.50;99.90;;;;;;7387763;19;21397;-72
2023/05/24 10:22:51;;;;;;;9.15;3.10;;;15.30;99.90;;;;;;7390285;19;20415;-74
2023/05/24 10:25:22;;;;;;;7.55;3.30;;;15.20;99.90;;;;;;7391241;19;20473;-74
2023/05/24 10:27:57;;;;;;;7.35;2.92;;;15.20;99.90;;;;;;7390807;19;20160;-74
2023/05/24 10:30:49;;;;;;;5.72;3.40;;;15.20;99.90;;;;;;7393274;19;20586;-73
2023/05/24 10:33:17;;;;;;;8.80;3.22;;;15.10;99.90;;;;;;7386471;19;20150;-72
2023/05/24 10:35:44;;;;;;;6.85;3.28;;;15.20;99.90;;;;;;7390248;19;20707;-72
2023/05/24 10:38:10;;;;;;;8.02;3.33;;;15.20;99.90;;;;;;7388387;19;20156;-74
2023/05/24 10:40:41;;;;;;;8.02;3.50;;;15.20;99.90;;;;;;7390384;19;20142;-73
2023/05/24 10:43:07;;;;;;;5.95;2.90;;;15.20;99.90;;;;;;7389873;19;20151;-73
2023/05/24 10:45:40;;;;;;;9.00;3.30;;;15.30;99.90;;;;;;7393368;19;20632;-74
2023/05/24 10:48:12;;;;;;;9.55;3.38;;;15.40;99.90;;;;;;7387612;19;20171;-73
2023/05/24 10:50:38;;;;;;;8.35;3.20;;;15.30;99.90;;;;;;7390850;19;20142;-73
2023/05/24 10:53:13;;;;;;;6.30;2.97;;;15.30;99.90;;;;;;7389978;19;20158;-74
2023/05/24 10:55:56;;;;;;;3.88;2.45;;;15.40;99.90;;;;;;7392651;19;20134;-73
2023/05/24 10:58:43;;;;;;;7.22;3.20;;;15.70;99.90;;;;;;7394872;19;20164;-72
2023/05/24 11:01:13;;;;;;;5.13;2.75;;;15.70;99.90;;;;;;7394416;19;20612;-73
2023/05/24 11:03:43;;;;;;;8.10;2.83;;;15.70;99.90;;;;;;7390923;19;20135;-73
2023/05/24 11:06:08;;;;;;;8.65;3.72;;;15.90;99.90;;;;;;7392170;19;20146;-71
2023/05/24 11:08:42;;;;;;;7.07;2.83;;;16.00;99.90;;;;;;7387294;19;20142;-72
2023/05/24 11:11:10;;;;;;;8.80;2.75;;;15.90;99.90;;;;;;7389997;19;20146;-73
2023/05/24 11:13:39;;;;;;;8.60;3.00;;;15.90;99.90;;;;;;7388905;19;20141;-73
2023/05/24 11:16:06;;;;;;;8.93;2.83;;;16.00;99.90;;;;;;7386309;19;20150;-72
2023/05/24 11:18:37;;;;;;;5.35;3.13;;;16.10;99.90;;;;;;7385082;19;20153;-72
2023/05/24 11:21:04;;;;;;;6.28;3.05;;;16.00;99.90;;;;;;7389558;19;20602;-74
2023/05/24 11:23:31;;;;;;;7.13;3.28;;;15.90;99.90;;;;;;7388909;19;20178;-72
2023/05/24 11:25:57;;;;;;;8.90;2.63;;;16.00;99.90;;;;;;7391152;19;20171;-73
2023/05/24 11:28:23;;;;;;;9.25;3.00;;;15.90;99.90;;;;;;7387532;19;20576;-73
2023/05/24 11:30:49;;;;;;;6.88;3.25;;;16.10;99.90;;;;;;7393725;19;20164;-74
2023/05/24 11:33:23;;;;;;;11.45;3.35;;;16.30;99.90;;;;;;7387250;19;20146;-73
2023/05/24 11:35:55;;;;;;;8.27;3.22;;;16.50;99.90;;;;;;7382066;19;20138;-75
2023/05/24 11:38:21;;;;;;;6.40;3.13;;;16.50;99.90;;;;;;7379769;19;21049;-72
2023/05/24 11:40:48;;;;;;;10.60;3.10;;;16.20;99.90;;;;;;7389902;19;20159;-72
2023/05/24 11:43:19;;;;;;;7.22;2.75;;;16.20;99.90;;;;;;7382487;19;20209;-73
2023/05/24 11:45:50;;;;;;;4.43;2.65;;;16.30;99.90;;;;;;7383478;19;20263;-74
2023/05/24 11:48:18;;;;;;;5.75;2.80;;;16.30;99.90;;;;;;7378983;19;20602;-72
2023/05/24 11:50:47;;;;;;;6.78;3.05;;;16.50;99.90;;;;;;7384956;19;20491;-72
2023/05/24 11:53:15;;;;;;;6.45;2.70;;;16.80;99.90;;;;;;7380634;19;20154;-73
2023/05/24 11:55:41;;;;;;;7.95;2.72;;;16.80;99.90;;;;;;7382949;19;20135;-73
2023/05/24 11:58:22;;;;;;;7.72;3.33;;;16.90;99.90;;;;;;7384648;19;20398;-73
2023/05/24 12:00:48;;;;;;;8.10;2.80;;;17.00;99.90;;;;;;7383173;19;20394;-75
2023/05/24 12:03:15;;;;;;;7.53;2.42;;;17.10;99.90;;;;;;7385578;19;20590;-73
2023/05/24 12:05:42;;;;;;;5.47;2.65;;;17.20;99.90;;;;;;7385194;19;20150;-74
2023/05/24 12:08:11;;;;;;;6.57;3.30;;;17.10;99.90;;;;;;7386717;19;20150;-73
2023/05/24 12:10:39;;;;;;;5.40;2.67;;;17.10;99.90;;;;;;7386814;19;20151;-74
2023/05/24 12:13:16;;;;;;;6.55;2.78;;;17.00;99.90;;;;;;7385329;19;20149;-74
2023/05/24 12:15:43;;;;;;;7.25;2.47;;;17.00;99.90;;;;;;7387537;19;20134;-73
2023/05/24 12:18:19;;;;;;;6.32;2.83;;;17.00;99.90;;;;;;7385610;19;20134;-74
2023/05/24 12:20:49;;;;;;;4.40;2.22;;;16.90;99.90;;;;;;7386962;19;20185;-73
2023/05/24 12:23:17;;;;;;;7.43;2.65;;;16.90;99.90;;;;;;7388061;19;20138;-73
2023/05/24 12:25:43;;;;;;;3.53;2.53;;;16.90;99.90;;;;;;7387376;19;20158;-73
2023/05/24 12:28:09;;;;;;;7.55;2.63;;;17.20;99.90;;;;;;7384272;19;20151;-74
2023/05/24 12:30:36;;;;;;;5.78;2.70;;;17.20;99.90;;;;;;7386864;19;20484;-74
2023/05/24 12:33:02;;;;;;;7.47;2.42;;;17.30;99.90;;;;;;7385424;19;20130;-74
2023/05/24 12:35:28;;;;;;;6.13;3.22;;;17.40;99.90;;;;;;7387231;19;20145;-73
2023/05/24 12:37:58;;;;;;;6.75;2.30;;;17.50;99.90;;;;;;7385836;19;20150;-75
2023/05/24 12:40:26;;;;;;;6.03;2.67;;;17.70;99.90;;;;;;7387210;19;20134;-75
2023/05/24 12:42:56;;;;;;;6.75;2.45;;;17.70;99.90;;;;;;7386059;19;20174;-73
2023/05/24 12:45:24;;;;;;;5.32;2.58;;;17.70;99.90;;;;;;7386058;19;20157;-72
2023/05/24 12:48:01;;;;;;;6.57;2.30;;;17.60;99.90;;;;;;7387805;19;20134;-74